Главная страница
METAR-TAF:

METAR-TAF

Аэропорты :

Гардермуэн

Осло, Норвегия

широта: 60-12N, долгота: 011-05E, высота над уровнем моря: 208 м

Текущие метеонаблюдения

Эта сводка был подготовлена 25 минут назад, в 22:20 UTC
Ветер 2 Узел переменных направлений
Температура 9°C
Влажность 53%
Давление 1010 hPa
Видимость 10 км и более
Нет облачности ниже 1500 м, и нет кучево-дождевой облачности

METAR: ENGM 222220Z VRB02KT CAVOK 09/M00 Q1010

Время: 00:45 (22:45 UTC)

Прогноз

Прогноз действительный с 22-го 18 UTC до 23-го 18 UTC
Ветер 8 Узел от северный
Видимость 10 км и более
Нет облачности ниже 1500 м, и нет кучево-дождевой облачности
временами
С 22-го 18 UTC до 22-го 20 UTC
Ветер 15 Узел от северный с порывами до 25 Узел
ливневые дожди

TAF: ENGM 2218/2318 35008KT CAVOK TEMPO 2218/2220 35015G25KT SHRA

Метеонаблюдения и прогнозы для более 4000 аэропортов (сводки METAR и TAF).

Имеющиеся станции представлены на карте желтыми и красными точками.

Чтобы увидеть название станции, наведите на нее мышь.

Затем щелкните, чтобы увидеть метеонаблюдения и метеопрогнозы.

Управление картой: чтобы увеличить масштаб, щелкните зеленые кнопки с черным крестиком; чтобы уменьшить масштаб, щелкните зеленую кнопку с тире; для просмотра соседних карт щелкайте зеленые стрелки.


METAR-TAF: